Language: 


Des rapports , des résumés tant et plus, au choix de chacun....


Données statistiques de la station
Quotidien Rapport Janvier 16, 2017 Unités:  Anglais    Métrique   les deux
« Précédent Jour
Suivant Jour »
Quotidien Hebdomadaire Mensuel Annuel Actuel
  Haut: Bas: Moyen:
Température: 39 °F 31.1 °F 34.7 °F
Pt de rosée: 38.3 °F 30.6 °F 34.2 °F
Humidité: 98 % 0 % 98 %
Vitesse du vent: 4.3 mph 0 mph 0.9 mph
Rafales: 6.9 mph - -
Vent:- - SE
Pression: 30.5 in 0 in -
Précipitation: 0.01 in    
Historical Graphs
 
 
Données statistiques pour Janvier 16, 2017
Heure Température Point de rosée Pression Vent Vitesse du vent Refales Humidité Pluie (taux horaire)
00:03 34.2 °F 33.6 °F 30.2 in Calm     98 % 0 in
00:08 34 °F 33.4 °F 30.2 in Calm     98 % 0 in
00:13 34 °F 33.4 °F 30.2 in SW 1.3 mph 2.2 mph 98 % 0 in
00:18 34 °F 33.4 °F 30.2 in Calm   2.2 mph 98 % 0 in
00:23 34 °F 33.4 °F 30.2 in Calm   1.1 mph 98 % 0 in
00:28 34 °F 33.4 °F 30.2 in Calm     98 % 0 in
00:33 34 °F 33.4 °F 30.2 in Calm     98 % 0 in
00:38 34 °F 33.4 °F 30.2 in SW 1.1 mph 1.1 mph 98 % 0 in
00:43 34 °F 33.4 °F 30.2 in Calm   1.1 mph 98 % 0 in
00:48 33.8 °F 33.3 °F 30.2 in Calm   1.1 mph 98 % 0 in
00:53 33.8 °F 33.3 °F 30.2 in Calm     98 % 0 in
00:58 33.8 °F 33.3 °F 30.2 in Calm     98 % 0 in
01:03 33.8 °F 33.3 °F 30.2 in Calm     98 % 0 in
01:08 33.8 °F 33.3 °F 30.2 in Calm     98 % 0 in
01:13 33.8 °F 33.3 °F 30.2 in Calm   1.1 mph 98 % 0 in
01:18 33.8 °F 33.3 °F 30.2 in Calm   1.1 mph 98 % 0 in
01:20 33.6 °F 33.1 °F 30.2 in Calm   1.1 mph 98 % 0 in
01:25 33.6 °F 33.1 °F 30.2 in Calm     98 % 0 in
01:30 33.6 °F 33.1 °F 30.2 in Calm     98 % 0 in
01:35 33.4 °F 32.9 °F 30.2 in Calm     98 % 0 in
01:40 33.4 °F 32.9 °F 30.2 in Calm     98 % 0 in
01:45 33.4 °F 32.9 °F 30.2 in Calm     98 % 0 in
01:50 33.4 °F 32.9 °F 30.2 in Calm     98 % 0 in
01:55 33.4 °F 32.9 °F 30.2 in Calm     98 % 0 in
02:02 32 °F 32.7 °F 0 in Calm     0 % 0 in
02:07 33.3 °F 32.7 °F 30.2 in Calm     98 % 0 in
02:12 33.1 °F 32.5 °F 30.2 in Calm   2.7 mph 98 % 0 in
02:17 33.1 °F 32.5 °F 30.2 in Calm   2.7 mph 98 % 0 in
02:22 33.1 °F 32.5 °F 30.2 in NE 2.2 mph 3.1 mph 98 % 0 in
02:27 33.1 °F 32.5 °F 30.2 in NNE 2 mph 3.6 mph 98 % 0 in
02:32 33.1 °F 32.5 °F 30.2 in Calm   3.6 mph 98 % 0 in
02:37 33.1 °F 32.5 °F 30.2 in Calm   2.9 mph 98 % 0 in
02:42 32.9 °F 32.4 °F 30.2 in Calm   2.9 mph 98 % 0 in
02:47 32.9 °F 32.4 °F 30.2 in Calm   3.1 mph 98 % 0 in
02:52 33.1 °F 32.5 °F 30.2 in NE 1.3 mph 3.1 mph 98 % 0 in
02:57 33.1 °F 32.5 °F 30.2 in Calm   2.7 mph 98 % 0 in
03:02 33.1 °F 32.5 °F 30.2 in Calm   1.6 mph 98 % 0 in
03:07 33.1 °F 32.5 °F 30.2 in Calm   1.1 mph 98 % 0 in
03:12 33.1 °F 32.5 °F 30.2 in Calm     98 % 0 in
03:17 33.1 °F 32.5 °F 30.2 in Calm   0.9 mph 98 % 0 in
03:22 33.1 °F 32.5 °F 30.2 in Calm   0.9 mph 98 % 0 in
03:27 33.3 °F 32.7 °F 30.2 in Calm   1.1 mph 98 % 0 in
03:32 33.3 °F 32.7 °F 30.2 in Calm   3.1 mph 98 % 0 in
03:37 33.3 °F 32.7 °F 30.2 in NE 2.5 mph 3.1 mph 98 % 0 in
03:42 33.4 °F 32.9 °F 30.2 in Calm   3.4 mph 98 % 0 in
03:47 33.6 °F 33.1 °F 30.2 in Calm   3.4 mph 98 % 0 in
03:52 33.6 °F 33.1 °F 30.2 in NE 3.4 mph 3.4 mph 98 % 0.01 in
03:57 33.6 °F 33.1 °F 30.2 in Calm   3.4 mph 98 % 0.01 in
04:02 33.8 °F 33.3 °F 30.2 in Calm   2.9 mph 98 % 0.01 in
04:07 33.8 °F 33.3 °F 30.2 in Calm     98 % 0.01 in
04:12 33.8 °F 33.3 °F 30.2 in Calm     98 % 0.01 in
04:17 33.8 °F 33.3 °F 30.2 in Calm   2.7 mph 98 % 0.01 in
04:22 33.8 °F 33.3 °F 30.2 in Calm   2.7 mph 98 % 0.01 in
04:27 33.8 °F 33.3 °F 30.2 in Calm     98 % 0.01 in
04:32 33.8 °F 33.3 °F 30.2 in Calm     98 % 0.01 in
04:37 33.8 °F 33.3 °F 30.2 in Calm     98 % 0.01 in
04:42 33.8 °F 33.3 °F 30.2 in Calm     98 % 0.01 in
04:47 33.8 °F 33.3 °F 30.2 in Calm     98 % 0.01 in
04:52 33.8 °F 33.3 °F 30.2 in Calm     98 % 0 in
04:57 33.8 °F 33.3 °F 30.2 in Calm     98 % 0 in
05:02 33.8 °F 33.3 °F 30.2 in Calm     98 % 0 in
05:07 34 °F 33.4 °F 30.2 in North 1.6 mph 2.9 mph 98 % 0 in
05:12 34 °F 33.4 °F 30.2 in Calm   2.9 mph 98 % 0 in
05:17 34 °F 33.4 °F 30.2 in North 3.4 mph 3.8 mph 98 % 0 in
05:22 34 °F 33.4 °F 30.2 in North 4 mph 4 mph 98 % 0 in
05:27 34 °F 33.4 °F 30.2 in North 3.4 mph 4 mph 98 % 0 in
05:32 34 °F 33.4 °F 30.2 in NNE 1.6 mph 4.7 mph 98 % 0 in
05:37 34 °F 33.4 °F 30.3 in NNE 2.5 mph 4.7 mph 98 % 0 in
05:42 33.8 °F 33.3 °F 30.3 in Calm   5.6 mph 98 % 0 in
05:47 33.8 °F 33.3 °F 30.3 in North 1.6 mph 5.6 mph 98 % 0 in
05:53 33.8 °F 33.3 °F 30.2 in Calm   3.6 mph 98 % 0 in
05:58 33.8 °F 33.3 °F 30.2 in Calm   2.5 mph 98 % 0 in
06:03 33.8 °F 33.3 °F 30.2 in Calm   3.1 mph 98 % 0 in
06:08 33.8 °F 33.3 °F 30.2 in Calm   3.1 mph 98 % 0 in
06:13 33.8 °F 33.3 °F 30.2 in Calm     98 % 0 in
06:18 33.6 °F 33.1 °F 30.2 in Calm   3.4 mph 98 % 0 in
06:23 33.6 °F 33.1 °F 30.3 in Calm   3.4 mph 98 % 0 in
06:28 33.6 °F 33.1 °F 30.3 in Calm   3.4 mph 98 % 0 in
06:33 33.6 °F 33.1 °F 30.3 in Calm   3.4 mph 98 % 0 in
06:38 33.6 °F 33.1 °F 30.2 in Calm   3.4 mph 98 % 0 in
06:43 33.4 °F 32.9 °F 30.2 in Calm     98 % 0 in
06:48 33.4 °F 32.9 °F 30.2 in Calm     98 % 0 in
06:53 33.4 °F 32.9 °F 30.3 in Calm     98 % 0 in
06:58 33.4 °F 32.9 °F 30.3 in Calm     98 % 0 in
07:03 33.4 °F 32.9 °F 30.3 in Calm     98 % 0 in
07:08 33.4 °F 32.9 °F 30.3 in Calm     98 % 0 in
07:13 33.4 °F 32.9 °F 30.3 in Calm     98 % 0 in
07:18 33.4 °F 32.9 °F 30.3 in Calm     98 % 0 in
07:23 33.4 °F 32.9 °F 30.3 in Calm   2.5 mph 98 % 0 in
07:28 33.4 °F 32.9 °F 30.3 in West 2.7 mph 3.1 mph 98 % 0 in
07:33 33.4 °F 32.9 °F 30.3 in WSW 2.9 mph 3.4 mph 98 % 0 in
07:38 33.4 °F 32.9 °F 30.3 in Calm   3.4 mph 98 % 0 in
07:43 33.4 °F 32.9 °F 30.3 in West 1.3 mph 3.6 mph 98 % 0 in
07:48 33.4 °F 32.9 °F 30.3 in WNW 2.5 mph 3.6 mph 98 % 0 in
07:53 33.4 °F 32.9 °F 30.3 in Calm   4.3 mph 98 % 0 in
07:58 33.4 °F 32.9 °F 30.3 in WNW 2 mph 4.3 mph 98 % 0 in
08:03 33.6 °F 33.1 °F 30.3 in Calm   4.3 mph 98 % 0 in
08:08 33.6 °F 33.1 °F 30.3 in West 1.3 mph 4 mph 98 % 0 in
08:13 33.6 °F 33.1 °F 30.3 in West 0.9 mph 4.3 mph 98 % 0 in
08:18 33.8 °F 33.3 °F 30.3 in Calm   4.3 mph 98 % 0 in
08:23 33.8 °F 33.3 °F 30.3 in Calm   3.4 mph 98 % 0 in
08:28 33.8 °F 33.3 °F 30.3 in Calm   3.4 mph 98 % 0 in
08:33 33.8 °F 33.3 °F 30.3 in Calm   2.5 mph 98 % 0 in
08:38 34 °F 33.4 °F 30.3 in Calm     98 % 0 in
08:43 34 °F 33.4 °F 30.3 in Calm   0.9 mph 98 % 0 in
08:48 34 °F 33.4 °F 30.3 in Calm   2.5 mph 98 % 0 in
08:53 34 °F 33.4 °F 30.3 in Calm   2.7 mph 98 % 0 in
08:58 34 °F 33.4 °F 30.3 in Calm   2.7 mph 98 % 0 in
09:03 34.2 °F 33.6 °F 30.3 in Calm     98 % 0 in
09:08 34.2 °F 33.6 °F 30.3 in Calm   1.6 mph 98 % 0 in
09:13 34.2 °F 33.6 °F 30.3 in Calm   1.6 mph 98 % 0 in
09:18 34.2 °F 33.6 °F 30.3 in Calm     98 % 0 in
09:23 34.3 °F 33.8 °F 30.3 in Calm   0.9 mph 98 % 0 in
09:28 34.3 °F 33.8 °F 30.3 in Calm   0.9 mph 98 % 0 in
09:33 34.3 °F 33.8 °F 30.3 in Calm     98 % 0 in
09:38 34.3 °F 33.8 °F 30.3 in Calm     98 % 0 in
09:43 34.3 °F 33.8 °F 30.3 in Calm   1.3 mph 98 % 0 in
09:48 34.5 °F 34 °F 30.3 in Calm   1.3 mph 98 % 0 in
09:53 34.5 °F 34 °F 30.3 in Calm   2.5 mph 98 % 0 in
09:58 34.5 °F 34 °F 30.3 in Calm   2.5 mph 98 % 0 in
10:03 34.5 °F 34 °F 30.3 in Calm     98 % 0 in
10:08 34.5 °F 34 °F 30.3 in SW 1.1 mph 2.5 mph 98 % 0 in
10:13 34.5 °F 34.2 °F 30.3 in WNW 1.3 mph 3.4 mph 98 % 0 in
10:18 34.5 °F 34.2 °F 30.3 in Calm   3.8 mph 98 % 0 in
10:23 34.9 °F 34.3 °F 30.3 in Calm   3.8 mph 98 % 0 in
10:28 34.9 °F 34.3 °F 30.3 in NW 1.3 mph 3.4 mph 98 % 0 in
10:33 35.1 °F 34.5 °F 30.3 in West 3.1 mph 3.4 mph 98 % 0 in
10:38 35.1 °F 34.5 °F 30.3 in Calm   3.4 mph 98 % 0 in
10:43 35.2 °F 34.7 °F 30.3 in Calm   3.1 mph 98 % 0 in
10:48 35.4 °F 34.9 °F 30.3 in Calm   2.7 mph 98 % 0 in
10:53 35.4 °F 34.9 °F 30.3 in Calm   2.7 mph 98 % 0 in
10:58 35.4 °F 35.1 °F 30.3 in Calm   0.9 mph 98 % 0 in
11:03 35.8 °F 35.2 °F 30.3 in West 2 mph 3.6 mph 98 % 0 in
11:08 35.8 °F 35.2 °F 30.3 in WSW 1.3 mph 4 mph 98 % 0 in
11:13 35.8 °F 35.2 °F 30.3 in Calm   4 mph 98 % 0 in
11:18 35.8 °F 35.2 °F 30.3 in WNW 0.9 mph 0.9 mph 98 % 0 in
11:23 35.4 °F 35.1 °F 30.3 in Calm   2.5 mph 98 % 0 in
11:28 35.8 °F 35.2 °F 30.3 in Calm   2.7 mph 98 % 0 in
11:33 35.8 °F 35.2 °F 30.3 in Calm   2.7 mph 98 % 0 in
11:38 35.8 °F 35.2 °F 30.3 in Calm   2.5 mph 98 % 0 in
11:43 35.8 °F 35.2 °F 30.3 in Calm   2.7 mph 98 % 0 in
11:48 36 °F 35.4 °F 30.3 in Calm   2.7 mph 98 % 0 in
11:53 36.1 °F 35.4 °F 30.3 in Calm   1.1 mph 98 % 0 in
11:58 36.1 °F 35.4 °F 30.3 in Calm   0.9 mph 98 % 0 in
12:03 36 °F 35.4 °F 30.3 in Calm   0.9 mph 98 % 0 in
12:08 36.1 °F 35.4 °F 30.3 in Calm   2.5 mph 98 % 0 in
12:13 36.1 °F 35.4 °F 30.3 in Calm   2.5 mph 98 % 0 in
12:18 36.1 °F 35.4 °F 30.3 in Calm   1.1 mph 98 % 0 in
12:23 36.1 °F 35.8 °F 30.3 in West 3.6 mph 4.3 mph 98 % 0 in
12:28 36.1 °F 35.8 °F 30.3 in West 1.3 mph 4.5 mph 98 % 0 in
12:33 36.7 °F 36.1 °F 30.3 in West 2.5 mph 4.5 mph 98 % 0 in
12:38 36.7 °F 36.1 °F 30.3 in WNW 2.2 mph 3.6 mph 98 % 0 in
12:43 36.9 °F 36.3 °F 30.3 in Calm   3.4 mph 98 % 0 in
12:48 36.9 °F 36.3 °F 30.3 in WNW 2.2 mph 4.3 mph 98 % 0 in
12:53 36.9 °F 36.3 °F 30.3 in WNW 2.7 mph 4.5 mph 98 % 0 in
12:58 36.9 °F 36.3 °F 30.3 in WNW 2.2 mph 4.5 mph 98 % 0 in
13:03 36.9 °F 36.3 °F 30.3 in Calm   3.8 mph 98 % 0 in
13:08 36.9 °F 36.3 °F 30.3 in WNW 2.7 mph 4.3 mph 98 % 0 in
13:13 37 °F 36.7 °F 30.3 in Calm   4.3 mph 98 % 0 in
13:18 37.2 °F 36.9 °F 30.3 in Calm   2.9 mph 98 % 0 in
13:23 37.6 °F 37 °F 30.3 in Calm   2 mph 98 % 0 in
13:28 37.6 °F 37 °F 30.3 in West 1.3 mph 2 mph 98 % 0 in
13:33 37.8 °F 37.2 °F 30.3 in Calm   1.3 mph 98 % 0 in
13:39 37.6 °F 37 °F 30.3 in Calm     98 % 0 in
13:44 37.6 °F 37 °F 30.3 in Calm   2.7 mph 98 % 0 in
13:49 37.8 °F 37.2 °F 30.3 in Calm   2.7 mph 98 % 0 in
13:54 37.8 °F 37.2 °F 30.3 in Calm     98 % 0 in
13:59 37.8 °F 37.2 °F 30.3 in Calm   2.5 mph 98 % 0 in
14:04 37.9 °F 37.6 °F 30.3 in Calm   2.5 mph 98 % 0 in
14:09 38.1 °F 37.8 °F 30.3 in WNW 1.1 mph 2.5 mph 98 % 0 in
14:14 38.5 °F 37.8 °F 30.3 in Calm   2.5 mph 98 % 0 in
14:24 38.5 °F 37.9 °F 30.3 in Calm     98 % 0 in
14:29 38.5 °F 37.9 °F 30.3 in North 2.7 mph 2.7 mph 98 % 0 in
14:34 38.7 °F 38.1 °F 30.3 in North 1.1 mph 2.7 mph 98 % 0 in
14:39 38.7 °F 38.1 °F 30.3 in Calm   2.7 mph 98 % 0 in
14:44 38.7 °F 38.1 °F 30.3 in Calm   2.9 mph 98 % 0 in
14:49 38.7 °F 38.1 °F 30.3 in Calm   2.9 mph 98 % 0 in
14:54 38.7 °F 37.9 °F 30.3 in North 2.7 mph 4 mph 97 % 0 in
14:59 38.7 °F 37.9 °F 30.3 in Calm   4 mph 97 % 0 in
15:04 38.7 °F 37.9 °F 30.3 in North 3.8 mph 3.8 mph 97 % 0 in
15:09 38.7 °F 37.9 °F 30.3 in Calm   3.8 mph 97 % 0 in
15:14 38.7 °F 37.9 °F 30.3 in NNE 3.4 mph 3.4 mph 97 % 0 in
15:19 38.7 °F 37.9 °F 30.3 in Calm   3.4 mph 97 % 0 in
15:24 38.7 °F 37.9 °F 30.3 in NE 1.1 mph 3.4 mph 97 % 0 in
15:29 38.8 °F 38.1 °F 30.3 in Calm   2.7 mph 97 % 0 in
15:34 39 °F 38.3 °F 30.3 in Calm   2.7 mph 97 % 0 in
15:39 39 °F 38.3 °F 30.3 in North 4 mph 4 mph 97 % 0 in
15:44 39 °F 38.3 °F 30.3 in Calm   4 mph 97 % 0 in
15:49 39 °F 38.3 °F 30.3 in NNE 2.7 mph 3.1 mph 97 % 0 in
15:54 39 °F 38.3 °F 30.3 in NE 0.9 mph 3.4 mph 97 % 0 in
15:59 38.8 °F 38.1 °F 30.3 in Calm   3.4 mph 97 % 0 in
16:04 38.8 °F 38.1 °F 30.3 in NNE 2.9 mph 3.1 mph 97 % 0 in
16:09 38.8 °F 38.1 °F 30.3 in NE 3.8 mph 4.5 mph 97 % 0 in
16:14 38.8 °F 38.1 °F 30.3 in North 3.4 mph 4.7 mph 97 % 0 in
16:19 38.8 °F 38.1 °F 30.3 in NNE 2.5 mph 4.7 mph 97 % 0 in
16:24 38.8 °F 38.1 °F 30.3 in NE 2.7 mph 4 mph 97 % 0 in
16:29 38.8 °F 38.1 °F 30.3 in NNE 3.4 mph 4 mph 97 % 0 in
16:34 38.7 °F 37.9 °F 30.3 in NE 3.4 mph 4 mph 97 % 0 in
16:39 38.7 °F 37.9 °F 30.3 in NNE 3.8 mph 4.9 mph 97 % 0 in
16:44 38.7 °F 37.9 °F 30.3 in NE 3.6 mph 4.9 mph 97 % 0 in
16:49 38.7 °F 37.9 °F 30.3 in Calm   3.8 mph 97 % 0 in
16:54 38.7 °F 37.9 °F 30.3 in Calm   3.4 mph 97 % 0 in
17:00 38.5 °F 37.8 °F 30.3 in East 0.9 mph 3.1 mph 97 % 0 in
17:06 38.5 °F 37.8 °F 30.3 in East 1.1 mph 2.7 mph 97 % 0 in
17:15 38.5 °F 37.6 °F 30.3 in East 2.7 mph 3.4 mph 97 % 0 in
17:19 38.1 °F 37.4 °F 30.3 in SE 1.6 mph 3.1 mph 97 % 0 in
17:31 37.6 °F 36.9 °F 30.3 in Calm   1.3 mph 97 % 0 in
17:35 37.6 °F 36.7 °F 30.3 in Calm     97 % 0 in
17:42 37.2 °F 36.5 °F 30.3 in Calm     97 % 0 in
17:44 37 °F 36.3 °F 30.3 in Calm     97 % 0 in
17:47 36.9 °F 36.1 °F 30.3 in Calm     97 % 0 in
17:48 36.9 °F 36.1 °F 30.3 in Calm     97 % 0 in
17:58 36.9 °F 36 °F 30.3 in Calm     97 % 0 in
18:20 35.4 °F 34.9 °F 30.3 in Calm     97 % 0 in
18:21 35.4 °F 34.5 °F 30.3 in Calm     97 % 0 in
18:32 34.9 °F 34.2 °F 30.4 in Calm     97 % 0 in
18:37 34.5 °F 33.6 °F 30.4 in Calm     97 % 0 in
18:45 34 °F 33.3 °F 30.4 in Calm     97 % 0 in
18:51 33.8 °F 33.1 °F 30.4 in Calm     97 % 0 in
18:56 33.8 °F 33.1 °F 30.4 in Calm     97 % 0 in
18:57 33.8 °F 33.3 °F 30.4 in Calm     98 % 0 in
19:01 34 °F 33.4 °F 30.4 in Calm     98 % 0 in
19:10 33.8 °F 33.3 °F 30.4 in Calm     98 % 0 in
19:14 33.6 °F 33.1 °F 30.4 in Calm     98 % 0 in
19:19 33.4 °F 32.9 °F 30.4 in Calm     98 % 0 in
19:30 33.3 °F 32.7 °F 30.4 in Calm     98 % 0 in
19:36 33.1 °F 32.5 °F 30.4 in Calm     98 % 0 in
19:38 33.1 °F 32.5 °F 30.4 in Calm     98 % 0 in
19:42 33.1 °F 32.5 °F 30.4 in Calm     98 % 0 in
19:47 32.9 °F 32.4 °F 30.4 in Calm     98 % 0 in
19:50 32.9 °F 32.4 °F 30.4 in Calm     98 % 0 in
19:58 33.1 °F 32.5 °F 30.4 in Calm     98 % 0 in
20:08 33.3 °F 32.7 °F 30.4 in Calm     98 % 0 in
20:19 33.8 °F 33.3 °F 30.4 in Calm   2 mph 98 % 0 in
20:20 33.8 °F 33.3 °F 30.4 in Calm   2 mph 98 % 0 in
21:06 34 °F 33.4 °F 30.4 in ESE 2.5 mph 6.9 mph 98 % 0 in
21:07 34 °F 33.4 °F 30.4 in ESE 3.4 mph 6.3 mph 98 % 0 in
21:13 33.8 °F 33.3 °F 30.4 in NE 3.8 mph 6.3 mph 98 % 0 in
21:16 33.8 °F 33.3 °F 30.4 in East 4.3 mph 6.3 mph 98 % 0 in
21:19 33.6 °F 33.1 °F 30.4 in ENE 3.1 mph 6 mph 98 % 0 in
21:25 33.4 °F 32.9 °F 30.4 in East 2.7 mph 4.3 mph 98 % 0 in
21:34 33.1 °F 32.5 °F 30.4 in East 1.1 mph 4 mph 98 % 0 in
21:42 32.7 °F 32.2 °F 30.4 in NE 3.1 mph 3.8 mph 98 % 0 in
21:47 32.5 °F 32 °F 30.4 in NE 3.6 mph 3.8 mph 98 % 0 in
21:49 32.5 °F 32 °F 30.4 in ENE 3.8 mph 4 mph 98 % 0 in
21:54 32.5 °F 32 °F 30.4 in ENE 3.1 mph 4 mph 98 % 0 in
21:56 32.4 °F 31.8 °F 30.4 in ENE 2.9 mph 4 mph 98 % 0 in
21:57 32.4 °F 31.8 °F 30.4 in ENE 2.7 mph 4 mph 98 % 0 in
22:03 32.2 °F 31.6 °F 30.4 in ENE 3.1 mph 3.6 mph 98 % 0 in
22:08 32 °F 31.5 °F 30.4 in ENE 2.5 mph 3.6 mph 98 % 0 in
22:09 32 °F 31.5 °F 30.4 in ENE 2.5 mph 3.6 mph 98 % 0 in
22:13 31.8 °F 31.3 °F 30.4 in NE 3.4 mph 3.6 mph 98 % 0 in
22:18 31.8 °F 31.3 °F 30.4 in NE 2.9 mph 3.8 mph 98 % 0 in
22:21 31.8 °F 31.3 °F 30.4 in NE 3.1 mph 3.8 mph 98 % 0 in
22:28 31.5 °F 30.9 °F 30.4 in NE 2.7 mph 3.6 mph 98 % 0 in
22:29 31.5 °F 30.9 °F 30.4 in NE 2.9 mph 3.1 mph 98 % 0 in
22:30 31.5 °F 30.9 °F 30.4 in NE 2.7 mph 3.1 mph 98 % 0 in
22:32 31.5 °F 30.9 °F 30.4 in NE 2.5 mph 3.1 mph 98 % 0 in
22:33 31.5 °F 30.9 °F 30.4 in NE 2.5 mph 3.1 mph 98 % 0 in
22:37 31.5 °F 30.9 °F 30.5 in ENE 2.5 mph 3.1 mph 98 % 0 in
22:40 31.5 °F 30.9 °F 30.5 in ENE 2.7 mph 3.4 mph 98 % 0 in
22:45 31.6 °F 31.1 °F 30.5 in NE 2.5 mph 3.4 mph 98 % 0 in
22:51 31.8 °F 31.3 °F 30.5 in East 2.5 mph 3.6 mph 98 % 0 in
22:56 31.8 °F 31.3 °F 30.4 in NE 3.1 mph 3.6 mph 98 % 0 in
23:00 32 °F 31.5 °F 30.4 in ENE 4 mph 4.3 mph 98 % 0 in
23:06 32 °F 31.5 °F 30.4 in ENE 4.3 mph 4.3 mph 98 % 0 in
23:11 32 °F 31.5 °F 30.4 in NE 3.1 mph 4.3 mph 98 % 0 in
23:16 32 °F 31.5 °F 30.4 in NE 2.9 mph 3.6 mph 98 % 0 in
23:21 31.8 °F 31.3 °F 30.4 in NE 3.1 mph 3.4 mph 98 % 0 in
23:26 31.8 °F 31.3 °F 30.4 in NE 3.4 mph 3.6 mph 98 % 0 in
23:31 31.8 °F 31.3 °F 30.4 in ENE 2.9 mph 3.6 mph 98 % 0 in
23:36 31.8 °F 31.3 °F 30.4 in ENE 2.9 mph 3.6 mph 98 % 0 in
23:41 31.6 °F 31.1 °F 30.4 in NE 2.9 mph 3.6 mph 98 % 0 in
23:46 31.5 °F 30.9 °F 30.4 in ENE 2.7 mph 3.6 mph 98 % 0 in
23:51 31.3 °F 30.7 °F 30.4 in ENE 2.7 mph 3.8 mph 98 % 0 in
23:56 31.1 °F 30.6 °F 30.4 in ENE 2.7 mph 3.8 mph 98 % 0 in
Le Gheer Warneton
Courtoisie de Weather Underground - 2.25 mb

Mise a jour : 17/12/2017 22:29:12
Généré par Cumulus 1.9.4 (1099)